Time;durP1;ratioP1;P1;durP2;ratioP2;P2;SDS_P1;SDS_P2;PMS_P1;PMS_P2;Temp;Humidity;BMP_temperature;BMP_pressure;BME280_temperature;BME280_humidity;BME280_pressure;Samples;Min_cycle;Max_cycle;Signal;HPM_P1;HPM_P2
2023/06/05 00:01:39;;;;;;;16.38;9.23;;;;;;;17.00;96.90;99843.88;5055539;28;20016;-89
2023/06/05 00:04:05;;;;;;;13.48;9.65;;;;;;;16.93;97.42;99838.88;5052167;28;20499;-88
2023/06/05 00:06:31;;;;;;;16.85;10.02;;;;;;;16.84;98.31;99834.25;5035730;28;20017;-88
2023/06/05 00:08:57;;;;;;;19.88;10.32;;;;;;;16.96;97.69;99846.63;5035674;28;20108;-88
2023/06/05 00:11:22;;;;;;;16.77;10.38;;;;;;;16.86;96.94;99813.31;5035731;28;20403;-89
2023/06/05 00:13:49;;;;;;;15.63;9.20;;;;;;;17.09;96.43;99838.84;5035469;28;20491;-90
2023/06/05 00:16:15;;;;;;;13.20;10.00;;;;;;;17.08;96.05;99831.56;5051138;28;20487;-89
2023/06/05 00:18:42;;;;;;;16.45;10.60;;;;;;;16.96;96.28;99826.84;5036002;28;20024;-89
2023/06/05 00:21:08;;;;;;;14.27;9.57;;;;;;;16.94;96.74;99830.03;5035191;28;20074;-89
2023/06/05 00:23:33;;;;;;;22.13;11.55;;;;;;;17.02;96.65;99839.50;5035196;28;20068;-89
2023/06/05 00:25:59;;;;;;;16.80;10.43;;;;;;;17.18;95.54;99836.63;5035426;28;20029;-88
2023/06/05 00:28:25;;;;;;;18.63;9.80;;;;;;;17.33;93.58;99840.56;5035227;28;20033;-89
2023/06/05 00:30:51;;;;;;;17.15;9.18;;;;;;;17.45;93.09;99847.28;5037159;28;20025;-89
2023/06/05 00:33:16;;;;;;;15.43;9.48;;;;;;;17.39;92.22;99844.72;5068458;28;20480;-89
2023/06/05 00:35:42;;;;;;;17.05;9.90;;;;;;;17.46;92.50;99852.53;5055367;28;20056;-89
2023/06/05 00:38:08;;;;;;;21.48;11.00;;;;;;;17.49;91.16;99845.31;5055009;28;20486;-89
2023/06/05 00:40:33;;;;;;;16.63;9.52;;;;;;;17.49;90.78;99851.78;5054048;28;20111;-89
2023/06/05 00:42:59;;;;;;;14.40;9.23;;;;;;;17.53;90.31;99829.25;5051387;28;20016;-89
2023/06/05 00:45:24;;;;;;;14.55;10.48;;;;;;;17.15;92.28;99843.03;5052685;28;20025;-88
2023/06/05 00:47:50;;;;;;;14.32;10.88;;;;;;;16.94;92.63;99846.97;5035107;28;20024;-89
2023/06/05 00:50:17;;;;;;;17.20;10.77;;;;;;;16.54;95.71;99850.91;5046371;28;20089;-89
2023/06/05 00:52:44;;;;;;;21.73;9.65;;;;;;;16.61;94.93;99845.41;5034880;28;20017;-88
2023/06/05 00:55:11;;;;;;;17.55;9.50;;;;;;;16.56;95.39;99848.53;5051286;28;20075;-88
2023/06/05 00:57:38;;;;;;;19.80;9.88;;;;;;;16.79;94.27;99826.06;5034532;28;20032;-88
2023/06/05 01:00:08;;;;;;;13.95;8.05;;;;;;;17.16;92.57;99855.97;5034664;28;20029;-89
2023/06/05 01:02:37;;;;;;;;;;;;;;;17.32;91.07;99864.38;5035344;28;20017;-88
2023/06/05 01:05:03;;;;;;;13.65;7.32;;;;;;;17.34;91.32;99866.81;5034457;28;19916;-89
2023/06/05 01:07:29;;;;;;;14.48;7.20;;;;;;;17.10;90.76;99857.44;5050220;28;20039;-89
2023/06/05 01:09:55;;;;;;;12.18;6.10;;;;;;;17.22;90.52;99854.47;5054410;28;20490;-89
2023/06/05 01:12:31;;;;;;;10.77;5.70;;;;;;;17.26;90.24;99863.03;5054001;28;20120;-89
2023/06/05 01:14:59;;;;;;;13.57;7.45;;;;;;;17.21;89.86;99861.31;5054690;28;20028;-88
2023/06/05 01:17:28;;;;;;;11.68;6.30;;;;;;;17.09;90.25;99865.13;5054433;28;20103;-89
2023/06/05 01:19:55;;;;;;;12.48;5.57;;;;;;;17.16;89.42;99870.09;5054499;28;20561;-88
2023/06/05 01:22:20;;;;;;;9.23;4.90;;;;;;;16.84;90.21;99864.50;5053845;28;20028;-90
2023/06/05 01:24:47;;;;;;;9.80;5.13;;;;;;;16.95;90.20;99850.59;5054328;28;20039;-89
2023/06/05 01:27:18;;;;;;;6.63;4.55;;;;;;;17.29;89.16;99878.44;5054241;28;20021;-88
2023/06/05 01:29:52;;;;;;;8.50;5.65;;;;;;;17.30;89.01;99880.06;5051260;28;20106;-88
2023/06/05 01:32:36;;;;;;;10.35;4.47;;;;;;;17.08;87.51;99865.47;5050855;28;20349;-89
2023/06/05 01:35:10;;;;;;;16.00;6.32;;;;;;;16.62;89.93;99869.66;5050746;28;20518;-88
2023/06/05 01:37:41;;;;;;;19.23;7.18;;;;;;;16.41;91.29;99869.94;5034234;28;20036;-90
2023/06/05 01:40:13;;;;;;;14.10;6.03;;;;;;;16.64;90.71;99872.91;5034178;28;20033;-88
2023/06/05 01:42:40;;;;;;;13.38;6.38;;;;;;;16.53;91.09;99877.47;5036527;28;20411;-89
2023/06/05 01:45:08;;;;;;;20.13;6.13;;;;;;;16.62;91.58;99872.47;5047404;28;20043;-89
2023/06/05 01:47:36;;;;;;;14.80;7.20;;;;;;;16.64;91.41;99874.94;5046569;28;20124;-89
2023/06/05 01:50:01;;;;;;;15.65;7.03;;;;;;;16.67;91.72;99875.03;5058174;28;20060;-89
2023/06/05 01:52:27;;;;;;;22.50;7.45;;;;;;;16.76;91.09;99876.81;5057999;28;20040;-88
2023/06/05 01:54:53;;;;;;;10.88;5.53;;;;;;;16.73;90.25;99884.03;5057842;28;20543;-89
2023/06/05 01:57:18;;;;;;;11.30;5.95;;;;;;;16.89;89.86;99867.03;5057924;28;20070;-89
2023/06/05 01:59:45;;;;;;;15.35;5.85;;;;;;;16.95;89.50;99874.03;5057921;28;20111;-88
2023/06/05 02:02:11;;;;;;;14.80;6.18;;;;;;;16.97;89.03;99873.69;5057715;28;20024;-88
2023/06/05 02:04:37;;;;;;;8.23;5.35;;;;;;;17.06;88.80;99879.16;5054086;28;20518;-89
2023/06/05 02:07:05;;;;;;;14.20;5.65;;;;;;;17.09;87.78;99879.25;5054575;28;20024;-89
2023/06/05 02:09:33;;;;;;;8.05;5.45;;;;;;;16.93;88.79;99886.91;5056248;28;20036;-88
2023/06/05 02:12:03;;;;;;;12.43;5.50;;;;;;;16.93;89.22;99889.72;5042728;28;20029;-88
2023/06/05 02:14:32;;;;;;;19.17;5.93;;;;;;;16.91;89.68;99884.47;5037610;28;20203;-89
2023/06/05 02:16:58;;;;;;;13.77;4.47;;;;;;;16.91;89.14;99887.28;5037648;28;20032;-88
2023/06/05 02:19:24;;;;;;;16.92;5.63;;;;;;;16.55;89.83;99858.19;5049928;28;20085;-90
2023/06/05 02:21:53;;;;;;;10.05;5.03;;;;;;;16.77;89.73;99881.28;5057532;28;20036;-89
2023/06/05 02:24:18;;;;;;;16.60;5.00;;;;;;;16.73;90.36;99877.56;5057452;28;20082;-89
2023/06/05 02:26:44;;;;;;;18.25;4.93;;;;;;;16.68;90.46;99873.84;5057379;28;20028;-89
2023/06/05 02:29:10;;;;;;;13.68;5.13;;;;;;;16.69;90.20;99883.94;5057404;28;20033;-90
2023/06/05 02:31:36;;;;;;;11.95;4.82;;;;;;;16.65;90.36;99871.75;5075187;28;20028;-89
2023/06/05 02:34:02;;;;;;;10.68;4.22;;;;;;;16.73;90.19;99884.03;5053606;28;20106;-90
2023/06/05 02:36:32;;;;;;;13.30;5.72;;;;;;;16.86;89.72;99898.84;5053892;28;20098;-88
2023/06/05 02:38:58;;;;;;;;;;;;;;;16.83;89.24;99894.78;5054638;28;20557;-89
2023/06/05 02:41:23;;;;;;;12.05;4.40;;;;;;;16.84;89.24;99884.28;5053629;28;20007;-89
2023/06/05 02:43:49;;;;;;;12.15;4.53;;;;;;;16.85;89.79;99894.38;5053553;28;20033;-89
2023/06/05 02:46:15;;;;;;;15.73;4.85;;;;;;;16.85;90.19;99885.91;5053709;28;20086;-89
2023/06/05 02:48:40;;;;;;;11.05;5.00;;;;;;;16.82;89.95;99876.16;5053993;28;20029;-89
2023/06/05 02:51:06;;;;;;;15.18;5.05;;;;;;;16.70;90.76;99879.94;5053660;28;20435;-89
2023/06/05 02:53:32;;;;;;;13.20;4.80;;;;;;;16.72;90.82;99881.56;5049744;28;20052;-89
2023/06/05 02:56:01;;;;;;;11.60;5.55;;;;;;;16.47;92.51;99870.50;5038449;28;20033;-90
2023/06/05 02:58:28;;;;;;;7.60;4.65;;;;;;;16.48;92.57;99869.31;5053695;28;20037;-89
2023/06/05 03:00:55;;;;;;;12.05;4.40;;;;;;;16.38;92.90;99868.66;5053531;28;20029;-89
2023/06/05 03:03:25;;;;;;;11.85;4.47;;;;;;;16.09;93.56;99838.91;5053360;28;20039;-89
2023/06/05 03:06:04;;;;;;;13.70;3.88;;;;;;;16.33;93.36;99866.13;5051584;28;20488;-89
2023/06/05 03:08:36;;;;;;;11.13;4.20;;;;;;;16.31;94.16;99868.50;5037330;28;20036;-89
2023/06/05 03:11:05;;;;;;;13.15;5.00;;;;;;;16.31;93.59;99865.69;5046010;28;20058;-89
2023/06/05 03:13:32;;;;;;;9.40;4.45;;;;;;;16.40;94.07;99871.94;5042445;28;20123;-90
2023/06/05 03:16:00;;;;;;;14.02;4.75;;;;;;;16.40;94.19;99857.81;5053204;28;20024;-89
2023/06/05 03:18:27;;;;;;;14.57;4.50;;;;;;;16.39;93.50;99859.00;5053311;28;20033;-89
2023/06/05 03:20:56;;;;;;;9.07;4.63;;;;;;;16.41;93.24;99856.66;5053082;28;20036;-90
2023/06/05 03:23:27;;;;;;;12.35;4.18;;;;;;;16.27;93.81;99862.75;5053256;28;20082;-89
2023/06/05 03:25:54;;;;;;;13.40;4.47;;;;;;;16.28;93.20;99839.00;5052057;28;20036;-90
2023/06/05 03:28:21;;;;;;;11.10;4.28;;;;;;;16.40;93.27;99854.19;5053134;28;20525;-89
2023/06/05 03:30:47;;;;;;;11.52;4.60;;;;;;;16.23;94.06;99849.75;5053075;28;20040;-89
2023/06/05 03:33:13;;;;;;;13.48;5.55;;;;;;;16.22;94.68;99857.38;5052103;28;20029;-90
2023/06/05 03:35:40;;;;;;;19.58;6.18;;;;;;;16.23;94.90;99861.03;5052866;28;20053;-88
2023/06/05 03:38:06;;;;;;;13.18;4.53;;;;;;;16.27;95.04;99851.47;5053011;28;20487;-89
2023/06/05 03:40:31;;;;;;;15.18;5.63;;;;;;;16.51;93.48;99852.47;5051632;28;20025;-89
2023/06/05 03:42:57;;;;;;;23.35;5.80;;;;;;;16.59;92.79;99856.25;5052832;28;20029;-89
2023/06/05 03:45:26;;;;;;;16.27;4.88;;;;;;;16.60;92.34;99854.28;5052559;28;20136;-89
2023/06/05 03:47:52;;;;;;;19.48;5.65;;;;;;;16.52;93.33;99865.38;5053652;28;20047;-90
2023/06/05 03:50:18;;;;;;;17.45;6.25;;;;;;;16.68;92.50;99865.38;5052793;28;20029;-89
2023/06/05 03:52:44;;;;;;;8.85;4.63;;;;;;;16.77;91.52;99867.16;5040444;28;20031;-90
2023/06/05 03:55:10;;;;;;;13.23;4.85;;;;;;;16.66;92.42;99861.25;5053375;28;20029;-89
2023/06/05 03:57:37;;;;;;;15.95;5.70;;;;;;;16.62;92.13;99849.88;5054530;28;20028;-90
2023/06/05 04:00:09;;;;;;;18.38;6.20;;;;;;;16.74;92.05;99870.72;5052613;28;20029;-89
2023/06/05 04:02:36;;;;;;;17.95;6.05;;;;;;;16.90;90.71;99863.03;5052290;28;20029;-88
2023/06/05 04:05:03;;;;;;;18.92;5.57;;;;;;;16.89;91.19;99875.50;5051752;28;20484;-88
2023/06/05 04:07:29;;;;;;;14.10;5.07;;;;;;;16.95;91.71;99867.56;5050807;28;20026;-89
2023/06/05 04:09:55;;;;;;;18.48;5.45;;;;;;;16.84;90.89;99862.50;5053047;28;20025;-89
2023/06/05 04:12:20;;;;;;;14.27;6.03;;;;;;;16.95;90.89;99867.56;5049337;28;20381;-88
2023/06/05 04:14:46;;;;;;;21.60;5.45;;;;;;;17.11;90.71;99865.56;5050711;28;20037;-90
2023/06/05 04:17:13;;;;;;;10.40;4.82;;;;;;;17.08;90.40;99873.94;5051188;28;20043;-89
2023/06/05 04:19:39;;;;;;;17.83;4.90;;;;;;;16.92;90.45;99840.88;5035177;28;20025;-88
2023/06/05 04:22:05;;;;;;;14.30;5.88;;;;;;;16.96;90.79;99841.78;5048909;28;20029;-86
2023/06/05 04:24:31;;;;;;;17.70;6.60;;;;;;;16.90;89.66;99846.09;5047816;28;20086;-86
2023/06/05 04:26:57;;;;;;;17.77;6.40;;;;;;;16.82;90.79;99876.16;5031899;28;20033;-86
2023/06/05 04:29:23;;;;;;;13.30;5.88;;;;;;;16.93;91.23;99867.13;5048033;28;20021;-86
2023/06/05 04:31:49;;;;;;;10.15;4.90;;;;;;;16.89;91.97;99867.03;5050040;28;20040;-86
2023/06/05 04:34:17;;;;;;;9.20;5.60;;;;;;;16.85;91.48;99871.78;5047478;28;20048;-86
2023/06/05 04:36:43;;;;;;;15.77;5.90;;;;;;;16.84;91.27;99887.09;5047914;28;20024;-86
2023/06/05 04:39:15;;;;;;;19.65;5.88;;;;;;;16.78;91.19;99880.13;5040721;28;20510;-86
2023/06/05 04:41:45;;;;;;;17.83;6.88;;;;;;;16.83;91.11;99893.94;5050035;28;20071;-86
2023/06/05 04:44:16;;;;;;;18.67;5.80;;;;;;;16.84;90.65;99898.41;5046363;28;20067;-87
2023/06/05 04:46:48;;;;;;;13.95;5.97;;;;;;;16.68;90.14;99884.31;5050164;28;20048;-87
2023/06/05 04:49:15;;;;;;;8.45;6.25;;;;;;;16.79;90.87;99910.00;5042503;28;20438;-86
2023/06/05 04:51:42;;;;;;;13.73;6.72;;;;;;;16.60;90.13;99896.63;5048384;28;20079;-86
2023/06/05 04:54:08;;;;;;;21.05;7.40;;;;;;;16.58;90.19;99877.22;5049076;28;20503;-86
2023/06/05 04:56:34;;;;;;;22.02;6.47;;;;;;;16.86;89.69;99915.81;5039587;28;20021;-85
2023/06/05 04:59:01;;;;;;;11.52;6.50;;;;;;;16.90;89.50;99904.59;5013191;28;20030;-86
2023/06/05 05:01:27;;;;;;;9.80;6.32;;;;;;;16.84;89.96;99907.72;5048588;28;20033;-86
2023/06/05 05:03:54;;;;;;;14.65;7.38;;;;;;;17.08;89.59;99908.69;5050140;28;20412;-86
2023/06/05 05:06:20;;;;;;;12.13;5.97;;;;;;;17.15;88.95;99908.03;5048889;28;20521;-86
2023/06/05 05:08:50;;;;;;;15.55;6.38;;;;;;;17.03;87.85;99910.97;5049336;28;20598;-86
2023/06/05 05:11:16;;;;;;;15.70;6.87;;;;;;;16.93;89.39;99923.63;5050628;28;20017;-87
2023/06/05 05:13:42;;;;;;;23.38;7.80;;;;;;;17.00;88.20;99921.00;5047748;28;20503;-86
2023/06/05 05:16:09;;;;;;;22.17;9.18;;;;;;;17.05;89.15;99919.91;5050362;28;20561;-86
2023/06/05 05:18:36;;;;;;;23.45;9.77;;;;;;;17.34;88.46;99921.38;5050114;28;20171;-86
2023/06/05 05:21:02;;;;;;;20.10;8.75;;;;;;;17.52;87.37;99932.22;5051474;28;20047;-86
2023/06/05 05:23:28;;;;;;;44.47;15.63;;;;;;;17.24;87.82;99922.75;5050163;28;20021;-87
2023/06/05 05:25:54;;;;;;;58.05;20.00;;;;;;;16.97;91.54;99930.19;5045116;28;20484;-85
2023/06/05 05:28:19;;;;;;;60.50;21.77;;;;;;;16.60;92.75;99925.66;5047218;28;20051;-87
2023/06/05 05:30:45;;;;;;;45.92;17.85;;;;;;;16.79;92.42;99936.22;5040554;28;20123;-86
2023/06/05 05:33:10;;;;;;;100.30;30.23;;;;;;;16.24;97.13;99930.41;5042515;28;20032;-86
2023/06/05 05:35:36;;;;;;;88.50;27.85;;;;;;;16.14;98.99;99929.75;5046789;28;20061;-86
2023/06/05 05:38:01;;;;;;;87.95;25.65;;;;;;;16.51;97.88;99947.63;5047904;28;20029;-86
2023/06/05 05:40:27;;;;;;;96.90;32.00;;;;;;;16.45;97.47;99952.72;5049396;28;20107;-86
2023/06/05 05:42:52;;;;;;;95.93;33.28;;;;;;;16.70;96.71;99952.53;5040610;28;20021;-87
2023/06/05 05:45:18;;;;;;;59.17;22.35;;;;;;;16.87;94.39;99936.41;5039023;28;20482;-87
2023/06/05 05:47:43;;;;;;;63.17;20.58;;;;;;;16.68;93.58;99937.97;5045320;28;20033;-87
2023/06/05 05:50:09;;;;;;;54.53;18.10;;;;;;;16.58;93.09;99930.88;5046584;28;20090;-86
2023/06/05 05:52:34;;;;;;;50.42;17.98;;;;;;;16.86;92.65;99935.56;5043639;28;20063;-87
2023/06/05 05:55:02;;;;;;;105.70;26.58;;;;;;;17.11;92.17;99924.91;5042303;28;20029;-86
2023/06/05 05:57:28;;;;;;;61.30;19.25;;;;;;;17.32;90.24;99920.94;5037728;28;20067;-85
2023/06/05 05:59:55;;;;;;;53.08;21.25;;;;;;;17.25;90.03;99917.94;5046938;28;20033;-86
2023/06/05 06:02:21;;;;;;;53.92;21.27;;;;;;;17.03;90.90;99899.69;5033893;28;20030;-87
2023/06/05 06:04:47;;;;;;;54.97;20.23;;;;;;;17.07;89.47;99901.38;5044195;28;20086;-86
2023/06/05 06:07:13;;;;;;;53.92;20.38;;;;;;;17.16;89.64;99911.66;5048702;28;20040;-87
2023/06/05 06:09:39;;;;;;;56.15;21.00;;;;;;;17.43;90.05;99918.31;5048391;28;20028;-86
2023/06/05 06:12:07;;;;;;;50.83;21.17;;;;;;;17.75;89.22;99914.53;5049102;28;20112;-87
2023/06/05 06:14:35;;;;;;;50.70;18.85;;;;;;;17.79;87.65;99929.53;5047984;28;20573;-87
2023/06/05 06:17:02;;;;;;;55.53;22.35;;;;;;;17.80;87.94;99939.69;5047438;28;20029;-85
2023/06/05 06:19:28;;;;;;;47.20;17.63;;;;;;;17.27;89.24;99918.38;5047835;28;20068;-84
2023/06/05 06:21:55;;;;;;;52.20;17.10;;;;;;;17.51;88.87;99939.91;5045932;28;20119;-85
2023/06/05 06:24:21;;;;;;;44.75;18.00;;;;;;;17.34;89.03;99935.50;5047764;28;20025;-86
2023/06/05 06:26:47;;;;;;;38.17;15.93;;;;;;;17.23;90.54;99937.28;5049285;28;20037;-85
2023/06/05 06:29:25;;;;;;;43.47;18.73;;;;;;;17.34;90.06;99934.66;5049904;28;20115;-85
2023/06/05 06:31:50;;;;;;;45.35;18.13;;;;;;;17.46;89.63;99934.53;5043611;28;20065;-84
2023/06/05 06:34:16;;;;;;;45.97;16.30;;;;;;;17.79;88.45;99933.22;5052570;28;20083;-85
2023/06/05 06:36:44;;;;;;;54.05;16.33;;;;;;;17.94;87.76;99934.31;5052202;28;20033;-85
2023/06/05 06:39:10;;;;;;;41.95;18.92;;;;;;;17.77;87.36;99935.59;5052256;28;20024;-85
2023/06/05 06:41:36;;;;;;;38.10;18.65;;;;;;;17.93;84.86;99934.69;5051372;28;20040;-84
2023/06/05 06:44:03;;;;;;;41.70;20.85;;;;;;;18.41;85.08;99945.72;5051790;28;20087;-85
2023/06/05 06:46:29;;;;;;;34.10;15.95;;;;;;;18.57;82.06;99936.28;5052065;28;20029;-84
2023/06/05 06:48:55;;;;;;;33.92;16.77;;;;;;;18.62;81.26;99922.63;5051750;28;20029;-85
2023/06/05 06:51:22;;;;;;;40.47;13.98;;;;;;;18.24;82.09;99904.56;5049753;28;20017;-86
2023/06/05 06:53:47;;;;;;;39.75;13.85;;;;;;;18.73;81.87;99927.66;5051887;28;20423;-85
2023/06/05 06:56:15;;;;;;;33.30;14.90;;;;;;;18.96;80.41;99932.47;5047750;28;20024;-86
2023/06/05 06:58:41;;;;;;;36.30;14.52;;;;;;;18.90;79.24;99927.09;5052176;28;20017;-86
2023/06/05 07:01:06;;;;;;;39.40;17.92;;;;;;;18.89;79.81;99916.16;5051825;28;20044;-86
2023/06/05 07:03:32;;;;;;;40.55;16.42;;;;;;;19.24;79.87;99894.41;5047944;28;20029;-87
2023/06/05 07:05:57;;;;;;;34.90;18.17;;;;;;;18.86;80.91;99897.91;5048173;28;20044;-87
2023/06/05 07:08:23;;;;;;;35.33;17.83;;;;;;;19.08;81.37;99904.72;5052677;28;20075;-86
2023/06/05 07:10:49;;;;;;;30.88;15.13;;;;;;;18.94;78.86;99881.81;5052991;28;20029;-87
2023/06/05 07:13:15;;;;;;;35.08;16.70;;;;;;;19.43;79.59;99908.44;5051995;28;20479;-87
2023/06/05 07:15:40;;;;;;;31.05;16.52;;;;;;;19.81;77.19;99877.25;5047273;28;20128;-87
2023/06/05 07:18:06;;;;;;;27.95;15.25;;;;;;;19.87;75.03;99904.09;5045739;28;20101;-85
2023/06/05 07:20:31;;;;;;;42.15;16.38;;;;;;;20.18;74.73;99909.72;5034336;28;20088;-88
2023/06/05 07:22:57;;;;;;;29.25;15.43;;;;;;;20.33;72.48;99879.41;5047087;28;20030;-86
2023/06/05 07:25:24;;;;;;;32.47;14.85;;;;;;;19.97;73.73;99881.91;5044785;28;20040;-85
2023/06/05 07:27:50;;;;;;;30.60;13.43;;;;;;;19.85;76.45;99902.84;5040253;28;20025;-85
2023/06/05 07:30:16;;;;;;;29.40;13.82;;;;;;;20.47;74.89;99901.47;5051431;28;20036;-85
2023/06/05 07:32:42;;;;;;;45.88;16.70;;;;;;;20.65;73.08;99889.44;5052304;28;20048;-86
2023/06/05 07:35:09;;;;;;;30.15;15.60;;;;;;;20.37;75.16;99907.88;5051791;28;20076;-86
2023/06/05 07:37:35;;;;;;;32.58;16.05;;;;;;;20.65;73.09;99895.13;5051468;28;20028;-86
2023/06/05 07:40:01;;;;;;;40.58;15.57;;;;;;;21.24;73.20;99900.81;5050876;28;20041;-85
2023/06/05 07:42:27;;;;;;;33.83;17.10;;;;;;;21.08;72.29;99903.16;5045877;28;20033;-86
2023/06/05 07:44:52;;;;;;;29.67;15.27;;;;;;;21.45;70.58;99887.94;5039549;28;20056;-85
2023/06/05 07:47:18;;;;;;;28.83;15.52;;;;;;;21.76;69.34;99899.84;5046095;28;20029;-87
2023/06/05 07:49:43;;;;;;;33.88;16.17;;;;;;;21.90;67.95;99893.41;5044526;28;20087;-85
2023/06/05 07:52:08;;;;;;;30.00;18.15;;;;;;;20.71;70.91;99894.38;5043227;28;20032;-88
2023/06/05 07:54:34;;;;;;;34.40;18.13;;;;;;;20.17;75.00;99885.38;5047379;28;20041;-88
2023/06/05 07:57:00;;;;;;;31.65;16.33;;;;;;;20.81;72.87;99895.69;5044787;28;20029;-86
2023/06/05 07:59:27;;;;;;;30.55;15.88;;;;;;;21.21;72.19;99893.09;5046356;28;20041;-87
2023/06/05 08:01:54;;;;;;;39.92;16.02;;;;;;;21.89;71.39;99886.06;5043770;28;20104;-86
2023/06/05 08:04:19;;;;;;;33.83;16.85;;;;;;;22.33;68.02;99898.34;5048053;28;20029;-85
2023/06/05 08:06:45;;;;;;;25.42;14.65;;;;;;;22.60;68.45;99888.63;5047798;28;20423;-86
2023/06/05 08:09:12;;;;;;;25.75;14.20;;;;;;;22.82;66.72;99887.38;5049502;28;20048;-86
2023/06/05 08:11:43;;;;;;;26.42;16.02;;;;;;;22.56;67.60;99883.75;5040788;28;20021;-86
2023/06/05 08:14:09;;;;;;;32.70;15.27;;;;;;;22.79;67.26;99878.84;5037039;28;20404;-89
2023/06/05 08:16:35;;;;;;;29.67;16.90;;;;;;;22.80;65.76;99894.72;5051800;28;20033;-88
2023/06/05 08:19:01;;;;;;;32.42;14.60;;;;;;;23.00;66.44;99890.22;5047075;28;20029;-86
2023/06/05 08:21:27;;;;;;;29.48;15.07;;;;;;;23.13;63.72;99890.56;5050928;28;20021;-83
2023/06/05 08:23:53;;;;;;;22.88;14.45;;;;;;;23.31;64.71;99880.38;5055283;28;20021;-86
2023/06/05 08:26:20;;;;;;;63.78;18.35;;;;;;;23.61;62.65;99876.97;5052031;28;20036;-85
2023/06/05 08:28:45;;;;;;;30.42;15.95;;;;;;;23.23;62.35;99880.38;5057052;28;20033;-84
2023/06/05 08:31:11;;;;;;;27.58;15.38;;;;;;;23.37;63.87;99875.88;5063177;28;20013;-85
2023/06/05 08:33:37;;;;;;;30.40;16.02;;;;;;;23.51;62.56;99872.94;5066715;28;20040;-88
2023/06/05 08:36:04;;;;;;;25.33;14.50;;;;;;;23.29;64.41;99866.53;5061059;28;20075;-86
2023/06/05 08:38:30;;;;;;;21.98;14.27;;;;;;;23.27;62.49;99863.25;5034561;28;20027;-86
2023/06/05 08:41:12;;;;;;;24.05;14.45;;;;;;;23.36;61.41;99854.28;5041142;28;20024;-86
2023/06/05 08:43:41;;;;;;;25.15;13.25;;;;;;;23.82;60.65;99855.25;5062012;28;20040;-86
2023/06/05 08:46:09;;;;;;;22.08;13.30;;;;;;;23.68;60.89;99859.00;5049088;28;20024;-86
2023/06/05 08:48:43;;;;;;;22.90;13.88;;;;;;;23.81;60.99;99847.94;5048973;28;20497;-87
2023/06/05 08:51:15;;;;;;;22.23;14.85;;;;;;;23.95;60.91;99862.09;5047622;28;20592;-87
2023/06/05 08:54:12;;;;;;;24.77;15.07;;;;;;;24.08;60.47;99859.63;5051402;28;20036;-88
2023/06/05 08:56:38;;;;;;;21.75;13.45;;;;;;;24.13;59.93;99848.97;5050290;28;20411;-87
2023/06/05 08:59:05;;;;;;;17.05;11.52;;;;;;;24.42;58.63;99865.88;5053632;28;20575;-86
2023/06/05 09:01:34;;;;;;;18.95;11.88;;;;;;;24.39;57.21;99862.63;5036859;28;20416;-87
2023/06/05 09:03:59;;;;;;;19.63;11.43;;;;;;;24.42;56.93;99861.00;5039723;28;20031;-87
2023/06/05 09:06:25;;;;;;;20.92;12.85;;;;;;;24.51;58.19;99864.19;5043225;28;20403;-87
2023/06/05 09:08:51;;;;;;;25.30;13.35;;;;;;;24.58;57.09;99839.59;5042819;28;20090;-89
2023/06/05 09:11:25;;;;;;;29.10;14.43;;;;;;;24.31;55.61;99843.13;5063746;28;20493;-87
2023/06/05 09:13:51;;;;;;;24.33;14.15;;;;;;;24.46;58.55;99856.03;5034960;28;20411;-86
2023/06/05 09:16:21;;;;;;;22.63;15.23;;;;;;;24.54;57.60;99862.50;5045355;28;20120;-87
2023/06/05 09:18:53;;;;;;;;;;;;;;;24.77;58.21;99859.06;5044790;28;20083;-89
2023/06/05 09:21:19;;;;;;;19.65;14.75;;;;;;;24.73;58.69;99857.44;5068398;28;19924;-87
2023/06/05 09:23:44;;;;;;;22.38;14.63;;;;;;;24.36;57.24;99828.34;5049789;28;20024;-89
2023/06/05 09:26:12;;;;;;;19.63;14.20;;;;;;;24.53;57.21;99850.28;5042107;28;20033;-89
2023/06/05 09:28:53;;;;;;;23.02;14.55;;;;;;;24.44;57.03;99826.28;5038814;28;20036;-88
2023/06/05 09:31:21;;;;;;;27.05;15.30;;;;;;;24.68;57.56;99847.28;5038942;28;20493;-87
2023/06/05 09:33:58;;;;;;;26.90;14.60;;;;;;;24.48;57.89;99850.72;5043334;28;20419;-87
2023/06/05 09:36:26;;;;;;;21.48;14.35;;;;;;;24.48;58.33;99853.56;5049332;28;20035;-87
2023/06/05 09:38:51;;;;;;;27.80;15.63;;;;;;;24.54;56.91;99845.34;5050902;28;20028;-87
2023/06/05 09:41:18;;;;;;;19.65;12.27;;;;;;;24.61;56.58;99844.47;5046345;28;20063;-87
2023/06/05 09:43:45;;;;;;;27.42;12.88;;;;;;;24.58;54.71;99845.31;5044735;28;20046;-86
2023/06/05 09:46:14;;;;;;;18.17;12.35;;;;;;;24.86;55.24;99837.72;5050297;28;20495;-87
2023/06/05 09:48:41;;;;;;;21.57;14.03;;;;;;;25.02;54.10;99826.53;5048405;28;20067;-89
2023/06/05 09:51:12;;;;;;;13.43;10.80;;;;;;;25.14;53.23;99835.78;5043654;28;20029;-87
2023/06/05 09:53:44;;;;;;;20.13;12.52;;;;;;;25.11;55.01;99828.06;5052082;28;20473;-86
2023/06/05 09:56:15;;;;;;;15.93;7.25;;;;;;;24.89;53.17;99822.59;5050155;28;20431;-85
2023/06/05 09:58:45;;;;;;;11.93;8.23;;;;;;;24.92;51.66;99830.31;5047406;28;20417;-84
2023/06/05 10:01:14;;;;;;;17.73;7.68;;;;;;;24.87;51.72;99822.22;5048067;28;20028;-84
2023/06/05 10:03:44;;;;;;;9.37;7.60;;;;;;;25.01;51.11;99826.94;5039497;28;20040;-84
2023/06/05 10:06:10;;;;;;;11.00;7.45;;;;;;;24.95;50.72;99832.31;5046760;28;20443;-85
2023/06/05 10:08:36;;;;;;;15.25;8.18;;;;;;;25.08;50.69;99819.06;5065926;28;20036;-83
2023/06/05 10:11:03;;;;;;;10.55;7.38;;;;;;;25.18;48.98;99830.81;5041877;28;20399;-84
2023/06/05 10:13:29;;;;;;;13.80;7.55;;;;;;;24.87;50.66;99827.94;5036367;28;20024;-85
2023/06/05 10:15:55;;;;;;;12.25;7.65;;;;;;;25.12;49.62;99818.25;5055428;28;20531;-85
2023/06/05 10:18:22;;;;;;;9.80;7.47;;;;;;;25.55;49.18;99826.28;5038763;28;20043;-85
2023/06/05 10:20:48;;;;;;;13.65;8.02;;;;;;;25.98;50.38;99827.72;5045665;28;20115;-85
2023/06/05 10:23:19;;;;;;;11.00;7.38;;;;;;;26.07;48.48;99822.25;5072478;28;20108;-84
2023/06/05 10:25:46;;;;;;;13.18;8.38;;;;;;;26.35;47.51;99817.31;5052639;28;20469;-84
2023/06/05 10:28:43;;;;;;;20.60;8.82;;;;;;;26.23;46.83;99815.06;5042019;28;20029;-84
2023/06/05 10:31:20;;;;;;;10.63;7.53;;;;;;;26.35;48.41;99811.59;5052488;28;20032;-85
2023/06/05 10:34:15;;;;;;;10.45;7.80;;;;;;;25.91;48.41;99810.66;5055544;28;20053;-84
2023/06/05 10:37:08;;;;;;;13.90;7.97;;;;;;;26.42;46.24;99795.53;5050584;28;20487;-84
2023/06/05 10:39:34;;;;;;;11.55;7.70;;;;;;;26.96;46.65;99810.94;5055509;28;20032;-83
2023/06/05 10:42:00;;;;;;;13.68;7.72;;;;;;;27.08;45.20;99795.13;5055563;28;20457;-84
2023/06/05 10:44:42;;;;;;;15.95;7.50;;;;;;;27.35;45.42;99792.09;5055435;28;20035;-85
2023/06/05 10:47:32;;;;;;;10.50;6.90;;;;;;;27.39;45.98;99792.00;5052389;28;20028;-84
2023/06/05 10:50:19;;;;;;;9.55;7.05;;;;;;;26.92;45.81;99788.06;5059409;28;20491;-84
2023/06/05 10:52:49;;;;;;;12.32;7.93;;;;;;;26.78;44.48;99784.19;5067750;28;20032;-85
2023/06/05 10:55:15;;;;;;;12.40;7.82;;;;;;;27.04;45.01;99786.59;5072304;28;20025;-86
2023/06/05 10:58:04;;;;;;;12.95;6.97;;;;;;;27.02;46.26;99791.97;5055689;28;20047;-88
2023/06/05 11:00:33;;;;;;;9.02;6.32;;;;;;;26.65;46.37;99786.06;5056262;28;20027;-86
2023/06/05 11:03:01;;;;;;;11.10;5.97;;;;;;;26.15;47.70;99782.81;5039113;28;20132;-86
2023/06/05 11:05:27;;;;;;;7.18;6.10;;;;;;;26.11;48.01;99766.94;5055400;28;20106;-87
2023/06/05 11:08:13;;;;;;;11.13;5.88;;;;;;;26.15;47.82;99762.75;5054680;28;20024;-86
2023/06/05 11:11:09;;;;;;;9.07;5.97;;;;;;;26.41;47.06;99745.94;5055057;28;20037;-88
2023/06/05 11:13:56;;;;;;;7.68;5.80;;;;;;;26.73;46.61;99766.69;5051771;28;20132;-87
2023/06/05 11:16:36;;;;;;;10.55;6.20;;;;;;;26.55;46.95;99752.69;5046506;28;20417;-87
2023/06/05 11:19:20;;;;;;;25.20;7.75;;;;;;;26.68;45.12;99753.66;5054264;28;20477;-87
2023/06/05 11:22:07;;;;;;;18.52;6.47;;;;;;;26.95;45.72;99758.47;5048335;28;20040;-85
2023/06/05 11:24:34;;;;;;;6.38;5.20;;;;;;;26.93;45.03;99746.66;5055606;28;20027;-86
2023/06/05 11:27:00;;;;;;;6.63;6.00;;;;;;;27.12;45.66;99755.66;5055361;28;20025;-86
2023/06/05 11:29:26;;;;;;;8.55;6.22;;;;;;;26.82;45.96;99758.28;5055317;28;20135;-88